Time;durP1;ratioP1;P1;durP2;ratioP2;P2;SDS_P1;SDS_P2;PMS_P1;PMS_P2;Temp;Humidity;BMP_temperature;BMP_pressure;BME280_temperature;BME280_humidity;BME280_pressure;Samples;Min_cycle;Max_cycle;Signal;HPM_P1;HPM_P2
2022/07/08 00:00:54;;;;;;;56.27;52.87;;;;;;;18.06;100.00;103159.36;1998489;71;30870;-73
2022/07/08 00:06:38;;;;;;;58.97;55.63;;;;;;;17.87;100.00;103166.66;2012965;71;30867;-73
2022/07/08 00:12:22;;;;;;;58.57;54.97;;;;;;;17.89;100.00;103179.87;2016648;71;31006;-73
2022/07/08 00:18:07;;;;;;;60.13;56.53;;;;;;;17.79;100.00;103175.65;1998932;71;33347;-73
2022/07/08 00:23:51;;;;;;;57.93;54.50;;;;;;;17.71;100.00;103171.39;2002372;71;33398;-74
2022/07/08 00:29:35;;;;;;;59.90;56.30;;;;;;;17.59;100.00;103179.78;2017028;71;33430;-73
2022/07/08 00:35:20;;;;;;;58.37;54.77;;;;;;;17.51;100.00;103180.28;1995223;71;33287;-74
2022/07/08 00:41:06;;;;;;;60.70;57.03;;;;;;;17.52;100.00;103172.15;2009961;71;33289;-74
2022/07/08 00:46:58;;;;;;;57.97;54.37;;;;;;;17.46;100.00;103178.30;2016596;71;32915;-74
2022/07/08 00:52:44;;;;;;;58.67;54.97;;;;;;;17.29;100.00;103181.88;2006291;71;31335;-74
2022/07/08 00:58:29;;;;;;;59.57;55.97;;;;;;;17.40;100.00;103178.02;2003946;71;33300;-74
2022/07/08 01:04:14;;;;;;;60.27;56.47;;;;;;;17.06;100.00;103187.41;1999519;71;30800;-72
2022/07/08 01:09:59;;;;;;;59.27;55.57;;;;;;;17.07;100.00;103188.25;2006240;71;32935;-73
2022/07/08 01:15:44;;;;;;;60.73;56.93;;;;;;;16.96;100.00;103194.91;2015203;71;32965;-73
2022/07/08 01:21:36;;;;;;;60.03;56.33;;;;;;;16.89;100.00;103197.12;2011421;71;33026;-73
2022/07/08 01:27:22;;;;;;;60.30;56.43;;;;;;;16.76;100.00;103192.82;2004374;71;32899;-74
2022/07/08 01:33:06;;;;;;;60.00;56.20;;;;;;;16.87;100.00;103196.52;1970329;72;32982;-73
2022/07/08 01:38:51;;;;;;;61.43;57.80;;;;;;;16.60;100.00;103197.45;2014868;71;32821;-74
2022/07/08 01:44:36;;;;;;;60.77;56.97;;;;;;;16.29;100.00;103197.75;2011780;71;33300;-71
2022/07/08 01:50:21;;;;;;;60.23;56.47;;;;;;;16.38;100.00;103191.94;2004398;71;30872;-74
2022/07/08 01:56:06;;;;;;;59.90;56.10;;;;;;;16.25;100.00;103193.79;2007796;71;33358;-74
2022/07/08 02:01:50;;;;;;;59.53;55.73;;;;;;;16.20;100.00;103192.33;2013024;71;33113;-74
2022/07/08 02:07:34;;;;;;;58.90;55.30;;;;;;;16.23;100.00;103188.98;2000495;71;32868;-74
2022/07/08 02:13:21;;;;;;;63.37;59.40;;;;;;;16.24;100.00;103203.30;2008047;71;32952;-72
2022/07/08 02:19:06;;;;;;;62.30;58.33;;;;;;;16.23;100.00;103193.74;2011529;71;33436;-72
2022/07/08 02:24:50;;;;;;;59.43;55.63;;;;;;;16.14;100.00;103192.53;2014524;71;32849;-73
2022/07/08 02:30:34;;;;;;;65.73;61.63;;;;;;;16.04;100.00;103193.85;2004274;70;32867;-73
2022/07/08 02:36:19;;;;;;;66.80;62.60;;;;;;;16.01;100.00;103189.60;2009818;71;32821;-74
2022/07/08 02:42:08;;;;;;;62.27;58.20;;;;;;;16.46;100.00;103192.55;2002561;71;32813;-74
2022/07/08 02:47:53;;;;;;;64.27;60.37;;;;;;;16.66;100.00;103178.70;2004287;71;32942;-74
2022/07/08 02:53:37;;;;;;;64.07;60.07;;;;;;;16.71;100.00;103181.55;2018477;71;32959;-74
2022/07/08 02:59:25;;;;;;;63.93;59.93;;;;;;;16.57;100.00;103187.30;2016727;71;33350;-74
2022/07/08 03:05:11;;;;;;;60.43;56.60;;;;;;;16.47;100.00;103181.63;2012083;71;32721;-71
2022/07/08 03:10:55;;;;;;;63.13;59.13;;;;;;;16.54;100.00;103172.41;2009891;71;32862;-71
2022/07/08 03:16:39;;;;;;;63.53;59.63;;;;;;;16.52;100.00;103177.43;2016799;71;33368;-73
2022/07/08 03:22:23;;;;;;;60.67;56.83;;;;;;;16.44;100.00;103180.73;2004574;71;32798;-73
2022/07/08 03:28:08;;;;;;;59.97;55.97;;;;;;;15.83;100.00;103196.42;1996879;71;32926;-74
2022/07/08 03:33:52;;;;;;;63.07;58.83;;;;;;;15.85;100.00;103191.41;1995078;71;32777;-74
2022/07/08 03:39:36;;;;;;;61.53;57.23;;;;;;;15.74;100.00;103191.02;2006300;71;33198;-73
2022/07/08 03:45:22;;;;;;;62.27;58.03;;;;;;;15.76;100.00;103193.55;2010183;71;33321;-73
2022/07/08 03:51:07;;;;;;;61.07;56.87;;;;;;;15.66;100.00;103199.87;1991608;71;32908;-73
2022/07/08 03:56:51;;;;;;;60.13;56.10;;;;;;;15.65;100.00;103200.15;1991580;71;32868;-73
2022/07/08 04:02:36;;;;;;;64.07;59.40;;;;;;;15.47;100.00;103206.34;1863012;76;85464;-70
2022/07/08 04:08:21;;;;;;;65.90;61.30;;;;;;;15.54;100.00;103220.18;2004311;71;32854;-70
2022/07/08 04:14:05;;;;;;;67.50;62.90;;;;;;;15.93;100.00;103214.77;2009648;71;33320;-69
2022/07/08 04:19:50;;;;;;;65.67;61.13;;;;;;;16.04;100.00;103221.34;2010942;71;32813;-70
2022/07/08 04:25:34;;;;;;;67.83;63.27;;;;;;;15.90;100.00;103225.66;2016686;71;32897;-70
2022/07/08 04:31:21;;;;;;;67.20;62.60;;;;;;;15.90;100.00;103236.33;1997278;71;33263;-70
2022/07/08 04:37:06;;;;;;;68.93;63.93;;;;;;;15.86;100.00;103239.91;2007533;71;33003;-69
2022/07/08 04:42:52;;;;;;;67.47;62.77;;;;;;;15.71;100.00;103238.31;1994979;71;32873;-70
2022/07/08 04:48:36;;;;;;;67.80;63.17;;;;;;;15.97;100.00;103245.06;2002302;71;33433;-70
2022/07/08 04:54:21;;;;;;;66.33;61.83;;;;;;;15.63;100.00;103257.84;2007502;71;33024;-70
2022/07/08 05:00:10;;;;;;;67.17;62.47;;;;;;;15.90;100.00;103250.89;2007542;71;32811;-70
2022/07/08 05:02:41;;;;;;;66.33;61.73;;;;;;;15.89;100.00;103254.25;1975987;72;26212;-70
2022/07/08 05:08:26;;;;;;;68.93;64.23;;;;;;;15.96;100.00;103248.42;2000311;71;32974;-70
2022/07/08 05:14:13;;;;;;;67.60;62.83;;;;;;;15.96;100.00;103240.01;2013591;71;32838;-70
2022/07/08 05:19:56;;;;;;;70.67;65.73;;;;;;;16.07;100.00;103239.58;2013180;71;33021;-70
2022/07/08 05:25:43;;;;;;;70.17;65.20;;;;;;;16.16;100.00;103249.22;2006364;71;33393;-70
2022/07/08 05:31:27;;;;;;;68.40;63.70;;;;;;;16.18;100.00;103249.23;2009962;71;33432;-71
2022/07/08 05:37:12;;;;;;;70.87;65.73;;;;;;;16.24;100.00;103248.73;2006410;71;32912;-71
2022/07/08 05:42:58;;;;;;;69.63;64.53;;;;;;;16.23;100.00;103248.44;2004442;71;32826;-69
2022/07/08 05:48:42;;;;;;;69.27;64.07;;;;;;;16.25;100.00;103249.88;1996967;71;32798;-70
2022/07/08 05:54:26;;;;;;;67.30;62.43;;;;;;;16.33;100.00;103242.39;2014748;71;32949;-70
2022/07/08 06:00:15;;;;;;;70.60;65.57;;;;;;;16.39;100.00;103255.33;2018121;71;33008;-69
2022/07/08 06:06:00;;;;;;;69.90;64.90;;;;;;;16.47;100.00;103254.58;2005526;71;33358;-70
2022/07/08 06:11:44;;;;;;;69.63;64.63;;;;;;;16.52;100.00;103261.06;2012824;71;33100;-70
2022/07/08 06:17:28;;;;;;;69.40;64.50;;;;;;;16.64;100.00;103262.34;2003792;71;32977;-71
2022/07/08 06:23:13;;;;;;;68.27;63.47;;;;;;;16.70;100.00;103273.33;2009561;71;31026;-71
2022/07/08 06:28:57;;;;;;;65.27;60.93;;;;;;;16.68;100.00;103276.97;2003952;71;33407;-71
2022/07/08 06:34:41;;;;;;;63.03;58.83;;;;;;;16.94;100.00;103275.22;2014899;71;32931;-71
2022/07/08 06:40:26;;;;;;;60.60;56.67;;;;;;;16.92;100.00;103272.38;2014765;71;32859;-70
2022/07/08 06:46:11;;;;;;;61.23;57.03;;;;;;;17.05;100.00;103274.17;2003864;71;32895;-71
2022/07/08 06:51:55;;;;;;;60.83;56.87;;;;;;;17.09;100.00;103264.64;2013712;71;30893;-71
2022/07/08 06:57:40;;;;;;;62.33;58.10;;;;;;;17.13;100.00;103266.63;2012982;71;33306;-71
2022/07/08 07:03:28;;;;;;;62.67;58.57;;;;;;;17.31;100.00;103277.99;2018401;71;32879;-71
2022/07/08 07:09:12;;;;;;;62.37;58.47;;;;;;;17.37;100.00;103272.67;1995210;71;31387;-74
2022/07/08 07:14:57;;;;;;;60.43;56.33;;;;;;;17.60;100.00;103284.08;2009442;71;30882;-70
2022/07/08 07:20:41;;;;;;;63.13;59.23;;;;;;;17.69;100.00;103286.66;2016724;71;31351;-71
2022/07/08 07:26:25;;;;;;;58.87;54.93;;;;;;;17.83;100.00;103284.19;2005879;71;33380;-71
2022/07/08 07:32:10;;;;;;;57.83;54.03;;;;;;;18.11;100.00;103268.23;1995351;71;32981;-69
2022/07/08 07:37:55;;;;;;;56.67;53.03;;;;;;;18.85;100.00;103270.61;2004135;71;31443;-70
2022/07/08 07:43:39;;;;;;;53.87;50.37;;;;;;;19.54;100.00;103260.36;2016685;71;30896;-69
2022/07/08 07:49:23;;;;;;;53.67;50.30;;;;;;;20.04;100.00;103261.23;2009405;71;31017;-70
2022/07/08 07:55:09;;;;;;;51.70;48.47;;;;;;;20.55;100.00;103257.53;2004391;71;30926;-70
2022/07/08 08:00:54;;;;;;;48.07;45.07;;;;;;;20.56;100.00;103258.38;2016658;71;30901;-70
2022/07/08 08:06:39;;;;;;;47.03;44.43;;;;;;;20.99;100.00;103245.28;2009209;71;31523;-68
2022/07/08 08:12:24;;;;;;;48.20;45.30;;;;;;;21.18;100.00;103249.90;2002661;71;33318;-69
2022/07/08 08:18:09;;;;;;;48.10;45.33;;;;;;;21.11;100.00;103255.05;2004142;71;31443;-69
2022/07/08 08:23:54;;;;;;;43.37;41.00;;;;;;;21.44;100.00;103249.05;2014832;71;30951;-69
2022/07/08 08:29:38;;;;;;;43.23;40.63;;;;;;;21.66;100.00;103247.93;2011623;71;30842;-69
2022/07/08 08:35:24;;;;;;;38.40;36.10;;;;;;;21.76;100.00;103248.38;2009465;71;31503;-68
2022/07/08 08:41:10;;;;;;;37.33;35.07;;;;;;;21.87;100.00;103252.74;2011359;71;30923;-70
2022/07/08 08:46:55;;;;;;;36.23;34.13;;;;;;;21.89;100.00;103255.28;2004548;71;31388;-69
2022/07/08 08:52:41;;;;;;;35.47;33.37;;;;;;;22.00;100.00;103250.61;2009463;71;30939;-69
2022/07/08 08:58:28;;;;;;;34.90;32.73;;;;;;;22.06;100.00;103245.73;2002623;71;30852;-69
2022/07/08 09:04:17;;;;;;;35.40;33.50;;;;;;;22.18;100.00;103237.62;2009998;71;30854;-69
2022/07/08 09:10:03;;;;;;;36.77;34.70;;;;;;;22.22;100.00;103243.78;2011858;71;30892;-69
2022/07/08 09:15:50;;;;;;;31.30;29.43;;;;;;;22.40;100.00;103239.83;2009458;71;31462;-68
2022/07/08 09:21:36;;;;;;;34.30;32.37;;;;;;;22.97;100.00;103233.77;2002620;71;30998;-69
2022/07/08 09:27:38;;;;;;;32.23;30.33;;;;;;;22.76;100.00;103227.36;2006572;71;31300;-69
2022/07/08 09:33:27;;;;;;;31.17;29.30;;;;;;;22.53;100.00;103234.23;2007981;71;31370;-69
2022/07/08 09:39:19;;;;;;;30.33;28.53;;;;;;;22.77;100.00;103224.77;2014984;71;30966;-70
2022/07/08 09:45:05;;;;;;;31.25;29.25;;;;;;;23.22;100.00;103217.41;2015086;71;30923;-70
2022/07/08 09:50:51;;;;;;;30.23;28.45;;;;;;;22.95;100.00;103223.30;2004140;70;30926;-70
2022/07/08 09:56:39;;;;;;;29.72;27.80;;;;;;;22.82;100.00;103220.43;2006038;71;31002;-68
2022/07/08 10:02:24;;;;;;;29.57;27.90;;;;;;;22.75;100.00;103220.00;2004643;70;30807;-70
2022/07/08 10:08:09;;;;;;;28.62;26.93;;;;;;;22.87;100.00;103217.51;2014973;71;31562;-68
2022/07/08 10:13:57;;;;;;;28.20;26.60;;;;;;;22.92;100.00;103216.84;2016688;71;31050;-70
2022/07/08 10:19:43;;;;;;;28.15;26.65;;;;;;;23.23;100.00;103204.92;2003932;71;31036;-70
2022/07/08 10:25:29;;;;;;;27.45;26.00;;;;;;;22.95;100.00;103206.87;2014967;71;31477;-70
2022/07/08 10:31:23;;;;;;;26.95;25.48;;;;;;;23.14;100.00;103206.22;2014978;71;31458;-70
2022/07/08 10:37:08;;;;;;;26.77;25.27;;;;;;;23.07;100.00;103208.61;2015175;70;31017;-70
2022/07/08 10:43:07;;;;;;;25.75;24.25;;;;;;;23.39;100.00;103202.87;2011932;71;31424;-70
2022/07/08 10:52:55;;;;;;;23.50;22.30;;;;;;;23.20;100.00;103192.19;2007704;71;30960;-70
2022/07/08 10:59:17;;;;;;;23.95;22.65;;;;;;;23.38;100.00;103191.25;2013223;71;31500;-70
2022/07/08 11:05:06;;;;;;;23.92;22.52;;;;;;;23.59;100.00;103192.53;1995309;71;30845;-69
2022/07/08 11:10:53;;;;;;;23.60;22.30;;;;;;;23.19;100.00;103181.18;2005781;71;31479;-70
2022/07/08 11:16:39;;;;;;;21.97;20.92;;;;;;;23.63;100.00;103181.38;2013310;71;30920;-67
2022/07/08 11:22:25;;;;;;;22.30;21.30;;;;;;;23.26;100.00;103188.11;2013141;71;30908;-70
2022/07/08 11:28:24;;;;;;;23.10;21.82;;;;;;;23.22;100.00;103179.97;2014876;71;30963;-70
2022/07/08 11:34:23;;;;;;;22.10;20.90;;;;;;;23.28;100.00;103181.52;2004422;71;31357;-69
2022/07/08 11:40:13;;;;;;;20.97;20.08;;;;;;;23.54;100.00;103176.19;2009547;71;30891;-71
2022/07/08 11:45:58;;;;;;;21.55;20.35;;;;;;;23.68;100.00;103169.07;2013275;71;30944;-71
2022/07/08 11:51:56;;;;;;;20.40;19.30;;;;;;;23.98;100.00;103170.62;2009957;71;30888;-68
2022/07/08 11:57:43;;;;;;;16.93;16.02;;;;;;;24.38;100.00;103156.04;2008048;71;30903;-69
2022/07/08 12:03:29;;;;;;;15.35;14.70;;;;;;;24.39;100.00;103156.84;2013129;71;30994;-71
2022/07/08 12:09:14;;;;;;;13.70;13.10;;;;;;;24.20;100.00;103149.13;1998876;71;30827;-68
2022/07/08 12:15:00;;;;;;;12.90;12.15;;;;;;;24.23;100.00;103147.89;2005723;71;31412;-70
2022/07/08 12:20:45;;;;;;;24.02;23.12;;;;;;;24.11;100.00;103139.66;2013886;70;31314;-73
2022/07/08 12:26:30;;;;;;;11.45;10.85;;;;;;;23.92;100.00;103134.98;1995161;71;31393;-69
2022/07/08 12:32:15;;;;;;;12.28;11.68;;;;;;;23.74;100.00;103139.43;2009474;71;31357;-73
2022/07/08 12:38:08;;;;;;;12.07;11.53;;;;;;;23.81;100.00;103126.47;2016517;71;31471;-70
2022/07/08 12:43:54;;;;;;;10.85;10.35;;;;;;;24.46;100.00;103120.31;2000286;71;30996;-70
2022/07/08 12:49:40;;;;;;;10.63;10.23;;;;;;;24.30;100.00;103123.31;1998976;71;30888;-70
2022/07/08 12:55:27;;;;;;;11.35;10.78;;;;;;;23.97;100.00;103128.34;2014814;71;30870;-69
2022/07/08 13:01:11;;;;;;;11.50;10.90;;;;;;;24.41;100.00;103124.13;2007747;71;30961;-70
2022/07/08 13:06:57;;;;;;;10.93;10.32;;;;;;;23.84;100.00;103121.56;1994741;71;30879;-70
2022/07/08 13:12:42;;;;;;;10.55;10.08;;;;;;;24.50;100.00;103114.23;1995139;71;30842;-70
2022/07/08 13:18:27;;;;;;;10.80;10.40;;;;;;;24.38;100.00;103114.00;2013168;71;30946;-70
2022/07/08 13:24:11;;;;;;;10.13;9.73;;;;;;;24.14;100.00;103112.86;2009921;71;30853;-70
2022/07/08 13:29:58;;;;;;;10.60;10.20;;;;;;;24.14;100.00;103109.19;2011484;71;33351;-70
2022/07/08 13:35:43;;;;;;;10.72;10.13;;;;;;;24.54;100.00;103095.94;2018569;71;30995;-70
2022/07/08 13:41:29;;;;;;;10.88;10.13;;;;;;;23.97;100.00;103101.37;2015086;71;30885;-67
2022/07/08 13:47:13;;;;;;;10.43;10.00;;;;;;;24.33;100.00;103087.14;2008075;71;30864;-70
2022/07/08 13:52:57;;;;;;;10.60;10.08;;;;;;;24.21;100.00;103088.31;1996972;71;30882;-70
2022/07/08 13:58:42;;;;;;;10.95;10.38;;;;;;;24.78;100.00;103065.95;2016780;71;30895;-69
2022/07/08 14:04:27;;;;;;;10.48;9.85;;;;;;;24.59;100.00;103071.08;1995112;71;30821;-70
2022/07/08 14:10:11;;;;;;;10.15;9.70;;;;;;;24.35;100.00;103065.75;2005781;71;30874;-70
2022/07/08 14:15:56;;;;;;;10.28;9.75;;;;;;;24.26;100.00;103064.86;1991721;71;30802;-70
2022/07/08 14:21:41;;;;;;;10.40;10.00;;;;;;;24.67;100.00;103053.80;2013072;71;32534;-70
2022/07/08 14:27:28;;;;;;;10.43;9.83;;;;;;;24.55;100.00;103047.89;2014862;71;30866;-67
2022/07/08 14:33:12;;;;;;;10.30;9.90;;;;;;;24.53;100.00;103043.95;2016436;71;30866;-70
2022/07/08 14:38:56;;;;;;;10.60;10.20;;;;;;;24.18;100.00;103046.34;2016666;71;31006;-70
2022/07/08 14:44:40;;;;;;;10.63;10.03;;;;;;;24.37;100.00;103040.70;1995201;71;31059;-70
2022/07/08 14:50:25;;;;;;;10.20;9.70;;;;;;;24.04;100.00;103040.73;1995205;71;31001;-70
2022/07/08 14:56:11;;;;;;;10.63;10.13;;;;;;;24.49;100.00;103032.41;1991513;71;30832;-69
2022/07/08 15:01:56;;;;;;;10.65;10.15;;;;;;;23.98;100.00;103032.91;1995270;71;30800;-70
2022/07/08 15:07:40;;;;;;;10.88;10.45;;;;;;;24.08;100.00;103011.09;1995477;71;30909;-69
2022/07/08 15:13:27;;;;;;;11.10;10.60;;;;;;;24.37;100.00;103029.92;1995241;71;30969;-67
2022/07/08 15:19:13;;;;;;;10.32;9.90;;;;;;;24.12;100.00;103014.38;2016742;71;31380;-70
2022/07/08 15:24:57;;;;;;;10.85;10.35;;;;;;;24.08;100.00;103012.52;2009191;71;30906;-70
2022/07/08 15:30:41;;;;;;;11.22;10.65;;;;;;;24.08;100.00;103005.41;2018658;70;31419;-67
2022/07/08 15:36:26;;;;;;;11.95;11.28;;;;;;;24.90;100.00;102995.72;2006233;71;30809;-69
2022/07/08 15:42:11;;;;;;;11.38;10.78;;;;;;;24.26;100.00;102986.73;1995294;71;31333;-69
2022/07/08 15:47:56;;;;;;;11.20;10.60;;;;;;;24.33;100.00;102982.86;2000259;71;31490;-69
2022/07/08 15:53:40;;;;;;;11.73;11.12;;;;;;;24.15;100.00;102981.64;1995328;71;30851;-67
2022/07/08 15:59:25;;;;;;;14.07;13.38;;;;;;;25.14;100.00;102973.91;2005902;71;31046;-69
2022/07/08 16:05:10;;;;;;;12.37;11.50;;;;;;;24.46;100.00;102976.81;2007620;71;31013;-69
2022/07/08 16:10:54;;;;;;;10.72;10.23;;;;;;;24.31;100.00;102980.92;1996975;71;31441;-69
2022/07/08 16:16:39;;;;;;;11.73;11.12;;;;;;;24.59;100.00;102975.02;2011988;71;30924;-69
2022/07/08 16:22:23;;;;;;;11.65;11.10;;;;;;;25.03;100.00;102966.27;2002755;71;30915;-69
2022/07/08 16:28:08;;;;;;;12.05;11.15;;;;;;;24.40;100.00;102969.59;2011218;71;30952;-69
2022/07/08 16:33:52;;;;;;;11.83;11.22;;;;;;;24.68;100.00;102965.94;2018455;71;30942;-69
2022/07/08 16:39:37;;;;;;;14.85;14.03;;;;;;;24.36;100.00;102960.89;2010132;71;30845;-69
2022/07/08 16:45:23;;;;;;;15.90;14.90;;;;;;;24.33;100.00;102955.03;1995242;70;30835;-69
2022/07/08 16:51:08;;;;;;;20.10;18.70;;;;;;;24.24;100.00;102955.00;2008037;71;30845;-69
2022/07/08 16:56:53;;;;;;;25.82;24.02;;;;;;;24.22;100.00;102956.47;2016795;71;30989;-69
2022/07/08 17:02:37;;;;;;;29.75;27.45;;;;;;;24.67;100.00;102955.15;2018592;71;30884;-71
2022/07/08 17:08:23;;;;;;;35.35;32.60;;;;;;;24.47;100.00;102944.40;2015036;71;31385;-67
2022/07/08 17:14:10;;;;;;;34.65;31.90;;;;;;;24.32;100.00;102948.51;1999166;71;30806;-68
2022/07/08 17:19:54;;;;;;;30.45;28.15;;;;;;;24.31;100.00;102941.72;2006593;71;30889;-68
2022/07/08 17:25:39;;;;;;;27.25;24.85;;;;;;;24.29;100.00;102940.66;1991701;71;30832;-65
2022/07/08 17:31:24;;;;;;;11.88;11.18;;;;;;;24.26;100.00;102937.02;1969176;71;30944;-66
2022/07/08 17:37:11;;;;;;;19.80;18.48;;;;;;;25.24;100.00;102936.61;2008156;71;30815;-66
2022/07/08 17:42:58;;;;;;;13.90;13.05;;;;;;;25.15;100.00;102927.23;2000848;71;31372;-67
2022/07/08 17:48:45;;;;;;;15.03;14.03;;;;;;;25.25;100.00;102936.84;1994659;71;28029;-68
2022/07/08 17:54:30;;;;;;;10.50;10.08;;;;;;;24.80;100.00;102934.28;1998850;71;31864;-67
2022/07/08 18:00:16;;;;;;;10.60;10.20;;;;;;;25.02;100.00;102934.77;2009599;71;31055;-67
2022/07/08 18:06:02;;;;;;;10.38;9.98;;;;;;;25.37;100.00;102937.03;2011965;71;31000;-67
2022/07/08 18:11:46;;;;;;;10.65;10.05;;;;;;;25.46;100.00;102924.22;2000249;71;30887;-65
2022/07/08 18:17:32;;;;;;;10.25;9.85;;;;;;;25.26;100.00;102927.98;2015165;71;30899;-65
2022/07/08 18:23:18;;;;;;;10.00;9.60;;;;;;;25.44;100.00;102922.28;1917234;73;30963;-66
2022/07/08 18:29:05;;;;;;;10.38;9.98;;;;;;;25.35;100.00;102923.12;2000526;71;30875;-66
2022/07/08 18:34:51;;;;;;;10.40;9.90;;;;;;;25.34;100.00;102923.45;2015107;71;30982;-67
2022/07/08 18:40:35;;;;;;;10.55;9.90;;;;;;;25.27;100.00;102918.86;1995139;71;31855;-65
2022/07/08 18:46:20;;;;;;;10.25;9.85;;;;;;;25.14;100.00;102924.14;2001110;70;31347;-68
2022/07/08 18:52:05;;;;;;;10.75;10.15;;;;;;;25.19;100.00;102922.55;2009778;71;30963;-68
2022/07/08 18:57:50;;;;;;;10.72;10.23;;;;;;;25.27;100.00;102916.86;2013904;71;31309;-67
2022/07/08 19:03:36;;;;;;;11.00;10.38;;;;;;;25.19;100.00;102915.44;2004283;71;33309;-68
2022/07/08 19:09:21;;;;;;;10.53;9.70;;;;;;;25.12;100.00;102922.19;2016703;71;30879;-66
2022/07/08 19:15:09;;;;;;;10.20;9.70;;;;;;;25.09;100.00;102920.87;2011528;71;30873;-67
2022/07/08 19:20:56;;;;;;;11.10;10.63;;;;;;;24.95;100.00;102921.60;2015061;71;30873;-66
2022/07/08 19:26:40;;;;;;;10.48;9.95;;;;;;;24.96;100.00;102916.75;2018716;71;33384;-65
2022/07/08 19:32:31;;;;;;;9.40;9.00;;;;;;;24.94;100.00;102913.65;2009498;71;30866;-67
2022/07/08 19:38:14;;;;;;;10.03;9.63;;;;;;;24.82;100.00;102916.28;1995133;71;31521;-68
2022/07/08 19:43:59;;;;;;;9.83;9.33;;;;;;;24.73;100.00;102917.47;2004143;71;30918;-64
2022/07/08 19:49:44;;;;;;;10.13;9.60;;;;;;;24.74;100.00;102921.95;2016997;71;30938;-67
2022/07/08 19:55:28;;;;;;;10.18;9.78;;;;;;;24.82;100.00;102921.13;1994989;71;30867;-66
2022/07/08 20:01:14;;;;;;;9.90;9.40;;;;;;;24.44;100.00;102929.41;1991865;71;30899;-65
2022/07/08 20:07:00;;;;;;;9.73;9.43;;;;;;;24.07;100.00;102925.06;2013403;71;31050;-67
2022/07/08 20:12:45;;;;;;;10.70;10.30;;;;;;;23.92;100.00;102924.05;2002746;71;30892;-65
2022/07/08 20:18:30;;;;;;;10.50;10.10;;;;;;;23.73;100.00;102923.45;2016726;71;30920;-67
2022/07/08 20:24:14;;;;;;;10.28;9.88;;;;;;;23.59;100.00;102934.87;2000575;71;30976;-67
2022/07/08 20:30:01;;;;;;;10.43;10.03;;;;;;;23.46;100.00;102930.95;2015044;71;30865;-67
2022/07/08 20:35:47;;;;;;;10.38;9.98;;;;;;;23.36;100.00;102928.94;2004539;71;30939;-68
2022/07/08 20:47:34;;;;;;;10.53;9.83;;;;;;;22.96;100.00;102940.09;2012039;71;31365;-67
2022/07/08 20:53:19;;;;;;;10.15;9.73;;;;;;;22.69;100.00;102940.13;1997253;71;31374;-66
2022/07/08 20:59:04;;;;;;;10.40;10.00;;;;;;;22.64;100.00;102945.87;2007833;71;30923;-67
2022/07/08 21:04:52;;;;;;;11.00;10.50;;;;;;;22.58;100.00;102942.33;2018631;71;30883;-66
2022/07/08 21:07:24;;;;;;;11.15;10.55;;;;;;;22.55;100.00;102949.18;1975096;72;24160;-67
2022/07/08 21:13:08;;;;;;;11.97;11.28;;;;;;;22.37;100.00;102948.16;2019152;71;31462;-67
2022/07/08 21:18:54;;;;;;;12.30;11.70;;;;;;;21.91;100.00;102952.98;2014007;71;30829;-67
2022/07/08 21:24:42;;;;;;;12.10;11.48;;;;;;;21.60;100.00;102963.45;2008172;71;30826;-72
2022/07/08 21:30:27;;;;;;;12.23;11.68;;;;;;;21.64;100.00;102965.92;2016926;71;31021;-67
2022/07/08 21:36:11;;;;;;;12.40;11.75;;;;;;;21.59;100.00;102967.42;2013474;71;31443;-65
2022/07/08 21:41:57;;;;;;;13.48;12.85;;;;;;;21.51;100.00;102963.88;2008314;71;30836;-65
2022/07/08 21:47:43;;;;;;;13.27;12.57;;;;;;;21.44;100.00;102966.24;2016706;71;31027;-66
2022/07/08 21:53:28;;;;;;;13.57;12.97;;;;;;;21.48;100.00;102968.72;2009575;71;31398;-65
2022/07/08 21:59:16;;;;;;;15.10;14.00;;;;;;;21.30;100.00;102980.34;2008167;70;30954;-66
2022/07/08 22:05:02;;;;;;;14.45;13.75;;;;;;;21.29;100.00;102986.29;2015354;71;31414;-67
2022/07/08 22:10:49;;;;;;;14.67;13.87;;;;;;;21.16;100.00;102991.30;2017049;71;31050;-66
2022/07/08 22:16:33;;;;;;;14.90;14.10;;;;;;;21.11;100.00;102989.91;2000381;71;31067;-66
2022/07/08 22:22:18;;;;;;;17.00;16.10;;;;;;;21.13;100.00;102992.76;1995387;71;31022;-67
2022/07/08 22:28:04;;;;;;;17.27;16.47;;;;;;;21.10;100.00;102993.31;2011812;71;30907;-66
2022/07/08 22:33:50;;;;;;;17.17;16.37;;;;;;;20.84;100.00;102993.39;2015121;71;31013;-66
2022/07/08 22:39:35;;;;;;;16.57;15.67;;;;;;;20.86;100.00;102994.79;2011346;71;31539;-66
2022/07/08 22:45:24;;;;;;;17.50;16.60;;;;;;;20.95;100.00;103001.17;2004383;71;30886;-66
2022/07/08 22:51:10;;;;;;;17.67;16.77;;;;;;;20.77;100.00;103001.41;2016986;70;30977;-66
2022/07/08 22:56:56;;;;;;;17.43;16.43;;;;;;;20.66;100.00;103002.69;2016800;71;30915;-66
2022/07/08 23:02:42;;;;;;;16.60;15.73;;;;;;;20.80;100.00;103003.62;2000418;71;30984;-67
2022/07/08 23:08:29;;;;;;;16.47;15.73;;;;;;;20.73;100.00;103015.30;1991588;71;31351;-66
2022/07/08 23:14:16;;;;;;;16.50;15.53;;;;;;;20.61;100.00;103021.95;2011283;71;31089;-66
2022/07/08 23:20:01;;;;;;;17.27;16.37;;;;;;;20.39;100.00;103018.81;2008406;71;30976;-65
2022/07/08 23:25:48;;;;;;;17.13;16.23;;;;;;;20.23;100.00;103010.20;2003032;71;33271;-65
2022/07/08 23:28:20;;;;;;;17.07;16.27;;;;;;;20.23;100.00;103013.03;1973535;72;24214;-65
2022/07/08 23:34:06;;;;;;;19.30;18.30;;;;;;;20.30;100.00;103024.84;1998870;71;31041;-66
2022/07/08 23:39:50;;;;;;;19.40;18.40;;;;;;;20.10;100.00;103026.42;2009772;71;32987;-66
2022/07/08 23:45:37;;;;;;;19.77;18.77;;;;;;;20.14;100.00;103028.36;2018727;71;31072;-66
2022/07/08 23:51:22;;;;;;;21.03;20.03;;;;;;;20.31;100.00;103020.88;2015204;71;30968;-65
2022/07/08 23:57:08;;;;;;;20.57;19.43;;;;;;;19.97;100.00;103023.73;2011824;71;30912;-66
